Terminal Aerodrome Forecast
Issued by NWS Cleveland, OH

Home | Current Version | Previous Version | Graphics & Text | Print | Product List | Glossary Off
Versions: 1 2 3 4 5 6 7 8 9 10 11 12 13

000
FTUS41 KCLE 190900 AAA
TAFCAK
TAF AMD
KCAK 190951Z 1910/2006 04008KT P6SM SCT035
     FM191400 04010KT P6SM SCT250
     FM200100 06006KT P6SM SCT250=

USA.gov is the U.S. government's official web portal to all federal, state and local government web resources and services.